createdAt,value
2023-02-06T00:01:50.341Z,-5.22
2023-02-06T00:04:17.964Z,-5.24
2023-02-06T00:06:45.511Z,-5.25
2023-02-06T00:09:12.832Z,-5.23
2023-02-06T00:11:40.178Z,-5.40
2023-02-06T00:14:07.560Z,-5.48
2023-02-06T00:16:35.830Z,-5.59
2023-02-06T00:19:04.272Z,-5.52
2023-02-06T00:21:31.648Z,-5.49
2023-02-06T00:24:01.961Z,-5.48
2023-02-06T00:26:31.252Z,-5.41
2023-02-06T00:28:58.554Z,-5.47
2023-02-06T00:31:25.897Z,-5.72
2023-02-06T00:33:53.305Z,-5.66
2023-02-06T00:36:20.576Z,-5.51
2023-02-06T00:38:47.977Z,-5.64
2023-02-06T00:41:15.369Z,-5.59
2023-02-06T00:43:43.680Z,-5.63
2023-02-06T00:46:10.979Z,-5.51
2023-02-06T00:48:38.315Z,-5.48
2023-02-06T00:51:05.890Z,-5.45
2023-02-06T00:53:33.185Z,-5.44
2023-02-06T00:56:00.348Z,-5.58
2023-02-06T00:58:27.682Z,-5.62
2023-02-06T01:00:54.922Z,-5.84
2023-02-06T01:03:23.792Z,-5.87
2023-02-06T01:05:51.116Z,-5.68
2023-02-06T01:08:18.380Z,-5.74
2023-02-06T01:10:46.009Z,-5.72
2023-02-06T01:13:13.698Z,-5.95
2023-02-06T01:15:41.741Z,-5.97
2023-02-06T01:18:09.002Z,-5.82
2023-02-06T01:20:40.037Z,-5.83
2023-02-06T01:23:07.528Z,-5.96
2023-02-06T01:25:35.090Z,-5.99
2023-02-06T01:28:02.476Z,-6.05
2023-02-06T01:30:33.022Z,-6.21
2023-02-06T01:33:00.384Z,-6.21
2023-02-06T01:35:29.661Z,-6.14
2023-02-06T01:37:56.974Z,-6.11
2023-02-06T01:40:24.361Z,-6.13
2023-02-06T01:42:51.581Z,-6.09
2023-02-06T01:45:21.795Z,-6.11
2023-02-06T01:47:57.979Z,-6.18
2023-02-06T01:50:25.303Z,-6.21
2023-02-06T01:52:52.884Z,-6.27
2023-02-06T01:55:20.197Z,-6.31
2023-02-06T01:57:47.438Z,-6.35
2023-02-06T02:00:18.013Z,-6.11
2023-02-06T02:02:49.112Z,-5.95
2023-02-06T02:05:19.333Z,-5.91
2023-02-06T02:08:03.588Z,-5.83
2023-02-06T02:10:33.801Z,-5.80
2023-02-06T02:13:01.079Z,-5.81
2023-02-06T02:16:06.267Z,-5.69
2023-02-06T02:18:54.972Z,-5.68
2023-02-06T02:22:14.732Z,-5.72
2023-02-06T02:25:15.767Z,-5.77
2023-02-06T02:28:27.782Z,-5.99
2023-02-06T02:31:38.851Z,-5.96
2023-02-06T02:34:32.082Z,-6.01
2023-02-06T02:37:09.381Z,-6.10
2023-02-06T02:39:56.753Z,-6.16
2023-02-06T02:42:35.724Z,-6.26
2023-02-06T02:45:50.782Z,-6.09
2023-02-06T02:48:29.963Z,-6.03
2023-02-06T02:50:58.711Z,-6.21
2023-02-06T02:53:33.604Z,-6.27
2023-02-06T02:56:01.521Z,-6.36
2023-02-06T02:58:34.208Z,-6.30
2023-02-06T03:01:09.340Z,-6.39
2023-02-06T03:03:40.077Z,-6.55
2023-02-06T03:06:40.926Z,-6.39
2023-02-06T03:09:14.266Z,-6.36
2023-02-06T03:11:50.443Z,-6.32
2023-02-06T03:14:49.868Z,-6.36
2023-02-06T03:17:33.526Z,-6.44
2023-02-06T03:20:06.685Z,-6.51
2023-02-06T03:22:37.006Z,-6.67
2023-02-06T03:25:12.152Z,-6.72
2023-02-06T03:27:42.856Z,-6.80
2023-02-06T03:30:14.216Z,-6.82
2023-02-06T03:32:46.947Z,-6.85
2023-02-06T03:35:22.486Z,-6.91
2023-02-06T03:37:50.338Z,-7.02
2023-02-06T03:40:18.648Z,-7.07
2023-02-06T03:43:02.955Z,-6.97
2023-02-06T03:45:45.608Z,-6.98
2023-02-06T03:48:29.913Z,-6.94
2023-02-06T03:51:03.389Z,-6.92
2023-02-06T03:53:32.986Z,-7.00
2023-02-06T03:56:10.084Z,-6.99
2023-02-06T03:58:37.702Z,-6.88
2023-02-06T04:01:07.404Z,-7.01
2023-02-06T04:03:35.083Z,-7.24
2023-02-06T04:06:02.350Z,-7.59
2023-02-06T04:08:29.583Z,-7.65
2023-02-06T04:10:56.865Z,-7.46
2023-02-06T04:13:24.201Z,-7.22
2023-02-06T04:15:51.614Z,-7.07
2023-02-06T04:18:18.901Z,-7.08
2023-02-06T04:20:46.147Z,-7.31
2023-02-06T04:23:13.482Z,-7.49
2023-02-06T04:25:40.727Z,-7.63
2023-02-06T04:28:08.311Z,-7.78
2023-02-06T04:30:35.507Z,-7.79
2023-02-06T04:33:03.019Z,-7.89
2023-02-06T04:35:30.232Z,-7.95
2023-02-06T04:37:57.472Z,-8.00
2023-02-06T04:40:24.767Z,-7.96
2023-02-06T04:42:52.085Z,-8.09
2023-02-06T04:45:19.393Z,-8.08
2023-02-06T04:47:49.557Z,-8.06
2023-02-06T04:50:20.136Z,-8.15
2023-02-06T04:52:47.261Z,-8.19
2023-02-06T04:55:14.503Z,-8.08
2023-02-06T04:57:42.395Z,-8.00
2023-02-06T05:00:10.658Z,-8.09
2023-02-06T05:02:39.776Z,-8.15
2023-02-06T05:05:09.596Z,-8.21
2023-02-06T05:07:37.172Z,-8.07
2023-02-06T05:10:04.770Z,-7.93
2023-02-06T05:12:34.726Z,-7.83
2023-02-06T05:15:01.985Z,-7.83
2023-02-06T05:17:29.207Z,-7.86
2023-02-06T05:19:58.780Z,-7.79
2023-02-06T05:22:26.445Z,-7.76
2023-02-06T05:24:53.991Z,-7.73
2023-02-06T05:27:21.271Z,-7.63
2023-02-06T05:29:48.608Z,-7.59
2023-02-06T05:32:15.927Z,-7.40
2023-02-06T05:34:46.130Z,-7.20
2023-02-06T05:37:13.593Z,-7.14
2023-02-06T05:39:40.724Z,-7.12
2023-02-06T05:42:08.021Z,-7.13
2023-02-06T05:44:35.277Z,-7.18
2023-02-06T05:47:02.652Z,-7.24
2023-02-06T05:49:30.014Z,-7.28
2023-02-06T05:51:57.338Z,-7.33
2023-02-06T05:54:24.792Z,-7.39
2023-02-06T05:56:52.307Z,-7.29
2023-02-06T05:59:19.889Z,-7.16
2023-02-06T06:01:47.189Z,-7.08
2023-02-06T06:04:15.226Z,-7.13
2023-02-06T06:06:42.444Z,-7.16
2023-02-06T06:09:09.869Z,-7.29
2023-02-06T06:11:37.385Z,-7.40
2023-02-06T06:14:05.892Z,-7.57
2023-02-06T06:16:33.610Z,-7.72
2023-02-06T06:19:01.931Z,-7.83
2023-02-06T06:21:29.413Z,-7.79
2023-02-06T06:23:56.971Z,-7.73
2023-02-06T06:26:24.303Z,-7.69
2023-02-06T06:28:51.409Z,-7.62
2023-02-06T06:31:18.818Z,-7.62
2023-02-06T06:33:46.364Z,-7.46
2023-02-06T06:36:15.432Z,-7.35
2023-02-06T06:38:42.803Z,-7.30
2023-02-06T06:41:10.064Z,-7.12
2023-02-06T06:43:37.509Z,-6.91
2023-02-06T06:46:05.358Z,-6.68
2023-02-06T06:48:33.161Z,-6.41
2023-02-06T06:51:00.439Z,-6.16
2023-02-06T06:53:27.671Z,-5.96
2023-02-06T06:55:55.008Z,-5.85
2023-02-06T06:58:22.259Z,-5.88
2023-02-06T07:00:49.451Z,-5.99
2023-02-06T07:03:16.730Z,-5.73
2023-02-06T07:05:44.140Z,-5.48
2023-02-06T07:08:11.383Z,-5.20
2023-02-06T07:10:38.659Z,-5.23
2023-02-06T07:13:05.960Z,-5.17
2023-02-06T07:15:33.165Z,-5.02
2023-02-06T07:18:00.559Z,-5.05
2023-02-06T07:20:28.029Z,-4.95
2023-02-06T07:22:55.233Z,-5.00
2023-02-06T07:25:22.609Z,-4.56
2023-02-06T07:27:49.863Z,-4.50
2023-02-06T07:30:17.254Z,-4.29
2023-02-06T07:32:44.621Z,-4.15
2023-02-06T07:35:15.325Z,-3.89
2023-02-06T07:37:42.790Z,-3.92
2023-02-06T07:40:11.000Z,-3.83
2023-02-06T07:42:39.398Z,-3.92
2023-02-06T07:45:17.600Z,-3.98
2023-02-06T07:47:45.432Z,-3.84
2023-02-06T07:50:12.868Z,-3.82
2023-02-06T07:52:40.148Z,-3.56
2023-02-06T07:55:07.616Z,-3.29
2023-02-06T07:57:34.880Z,-2.96
2023-02-06T08:00:02.393Z,-3.04
2023-02-06T08:02:39.485Z,-2.80
2023-02-06T08:05:07.375Z,-2.59
2023-02-06T08:07:34.820Z,-3.00
2023-02-06T08:10:02.280Z,-2.96
2023-02-06T08:12:32.818Z,-2.84
2023-02-06T08:15:00.014Z,-2.60
2023-02-06T08:17:28.116Z,-2.11
2023-02-06T08:19:55.481Z,-1.85
2023-02-06T08:22:22.806Z,-1.92
2023-02-06T08:24:50.047Z,-2.13
2023-02-06T08:27:17.246Z,-0.86
2023-02-06T08:29:44.531Z,-0.32
2023-02-06T08:32:12.198Z,1.58
2023-02-06T08:34:40.255Z,1.82
2023-02-06T08:37:08.022Z,2.87
2023-02-06T08:39:35.309Z,4.13
2023-02-06T08:42:10.118Z,5.12
2023-02-06T08:44:37.450Z,5.97
2023-02-06T08:47:09.982Z,5.13
2023-02-06T08:49:38.416Z,5.77
2023-02-06T08:52:06.081Z,6.56
2023-02-06T08:54:38.392Z,6.04
2023-02-06T08:57:06.832Z,6.34
2023-02-06T08:59:34.969Z,6.19
2023-02-06T09:02:02.255Z,6.36
2023-02-06T09:04:37.468Z,6.30
2023-02-06T09:07:04.842Z,7.09
2023-02-06T09:09:32.031Z,6.96
2023-02-06T09:12:03.988Z,7.17
2023-02-06T09:14:32.267Z,6.98
2023-02-06T09:16:59.615Z,7.10
2023-02-06T09:19:27.181Z,7.70
2023-02-06T09:21:54.545Z,8.46
2023-02-06T09:24:22.320Z,7.79
2023-02-06T09:26:59.427Z,7.93
2023-02-06T09:29:29.714Z,8.25
2023-02-06T09:32:00.271Z,8.40
2023-02-06T09:34:28.490Z,8.52
2023-02-06T09:36:56.974Z,9.18
2023-02-06T09:39:25.010Z,8.90
2023-02-06T09:42:05.660Z,8.78
2023-02-06T09:44:39.237Z,9.29
2023-02-06T09:47:29.296Z,9.74
2023-02-06T09:50:47.441Z,11.02
2023-02-06T09:54:06.323Z,13.36
2023-02-06T09:56:40.395Z,14.78
2023-02-06T09:59:35.463Z,11.61
2023-02-06T10:02:45.126Z,12.13
2023-02-06T10:05:35.332Z,8.60
2023-02-06T10:08:39.936Z,5.37
2023-02-06T10:11:58.681Z,3.45
2023-02-06T10:14:44.618Z,2.42
2023-02-06T10:17:49.252Z,1.55
2023-02-06T10:20:36.425Z,1.50
2023-02-06T10:23:19.162Z,1.29
2023-02-06T10:26:07.503Z,1.00
2023-02-06T10:28:35.492Z,1.27
2023-02-06T10:31:26.231Z,0.51
2023-02-06T10:34:26.937Z,0.63
2023-02-06T10:37:30.000Z,0.56
2023-02-06T10:40:21.307Z,0.66
2023-02-06T10:43:40.716Z,0.40
2023-02-06T10:46:25.876Z,-0.15
2023-02-06T10:49:21.870Z,-0.28
2023-02-06T10:52:22.881Z,-0.56
2023-02-06T10:54:53.561Z,-0.61
2023-02-06T10:57:25.062Z,0.09
2023-02-06T10:59:56.450Z,0.36
2023-02-06T11:02:38.636Z,-0.33
2023-02-06T11:05:19.430Z,0.25
2023-02-06T11:07:51.659Z,0.11
2023-02-06T11:10:23.987Z,0.07
2023-02-06T11:13:39.352Z,0.90
2023-02-06T11:16:14.254Z,0.76
2023-02-06T11:18:47.474Z,0.71
2023-02-06T11:21:36.540Z,0.36
2023-02-06T11:24:17.271Z,-0.04
2023-02-06T11:27:00.525Z,0.08
2023-02-06T11:29:32.497Z,0.01
2023-02-06T11:32:03.741Z,-0.05
2023-02-06T11:34:56.646Z,-0.06
2023-02-06T11:37:37.550Z,0.02
2023-02-06T11:40:19.812Z,0.05
2023-02-06T11:43:12.957Z,-0.03
2023-02-06T11:45:41.307Z,2.02
2023-02-06T11:48:53.669Z,3.54
2023-02-06T11:51:21.510Z,3.68
2023-02-06T11:54:03.742Z,2.12
2023-02-06T11:56:52.228Z,1.95
2023-02-06T11:59:23.219Z,2.08
2023-02-06T12:01:51.147Z,1.61
2023-02-06T12:04:25.556Z,1.33
2023-02-06T12:07:16.653Z,0.81
2023-02-06T12:09:46.304Z,0.81
2023-02-06T12:12:37.185Z,0.64
2023-02-06T12:15:44.473Z,0.65
2023-02-06T12:18:17.955Z,0.52
2023-02-06T12:21:10.864Z,0.63
2023-02-06T12:23:48.946Z,0.70
2023-02-06T12:26:20.762Z,0.59
2023-02-06T12:29:15.204Z,0.49
2023-02-06T12:32:07.476Z,0.38
2023-02-06T12:35:09.555Z,0.72
2023-02-06T12:37:49.311Z,0.58
2023-02-06T12:40:59.759Z,0.33
2023-02-06T12:43:28.701Z,0.10
2023-02-06T12:46:10.487Z,-0.08
2023-02-06T12:48:48.118Z,-0.83
2023-02-06T12:51:48.223Z,-0.51
2023-02-06T12:54:30.768Z,-0.82
2023-02-06T12:57:14.608Z,-1.17
2023-02-06T13:00:18.713Z,-1.10
2023-02-06T13:03:13.130Z,-1.22
2023-02-06T13:05:47.441Z,-1.18
2023-02-06T13:08:27.542Z,-0.94
2023-02-06T13:11:06.349Z,-0.82
2023-02-06T13:13:39.056Z,-0.98
2023-02-06T13:16:10.186Z,-0.99
2023-02-06T13:18:44.733Z,-0.78
2023-02-06T13:21:32.868Z,-0.90
2023-02-06T13:24:03.037Z,-0.70
2023-02-06T13:26:56.374Z,-1.26
2023-02-06T13:29:29.398Z,-1.34
2023-02-06T13:32:12.265Z,-1.36
2023-02-06T13:34:54.626Z,-1.35
2023-02-06T13:37:40.888Z,-1.69
2023-02-06T13:40:24.562Z,-1.54
2023-02-06T13:43:10.217Z,-1.74
2023-02-06T13:46:02.464Z,-1.60
2023-02-06T13:48:47.801Z,-1.85
2023-02-06T13:51:30.005Z,-1.56
2023-02-06T13:54:25.137Z,-1.91
2023-02-06T13:57:07.426Z,-1.94
2023-02-06T13:59:46.335Z,-2.39
2023-02-06T14:02:43.098Z,-2.47
2023-02-06T14:05:23.208Z,-2.51
2023-02-06T14:08:35.372Z,-2.51
2023-02-06T14:11:32.244Z,-2.57
2023-02-06T14:14:30.993Z,-2.42
2023-02-06T14:17:21.140Z,-2.91
2023-02-06T14:20:20.402Z,-2.79
2023-02-06T14:23:14.587Z,-2.81
2023-02-06T14:26:03.700Z,-2.73
2023-02-06T14:28:59.851Z,-2.66
2023-02-06T14:32:22.263Z,-2.78
2023-02-06T14:35:11.016Z,-2.70
2023-02-06T14:38:09.756Z,-2.68
2023-02-06T14:40:43.176Z,-2.62
2023-02-06T14:43:19.029Z,-2.81
2023-02-06T14:46:06.947Z,-2.80
2023-02-06T14:49:00.152Z,-2.78
2023-02-06T14:51:34.605Z,-3.06
2023-02-06T14:54:06.178Z,-3.09
2023-02-06T14:56:39.056Z,-3.23
2023-02-06T14:59:18.026Z,-3.26
2023-02-06T15:01:50.099Z,-3.46
2023-02-06T15:04:30.066Z,-3.51
2023-02-06T15:07:04.364Z,-3.58
2023-02-06T15:09:39.022Z,-3.77
2023-02-06T15:12:25.198Z,-3.83
2023-02-06T15:15:02.758Z,-3.80
2023-02-06T15:17:34.531Z,-3.87
2023-02-06T15:20:20.678Z,-4.13
2023-02-06T15:22:48.040Z,-4.31
2023-02-06T15:25:45.357Z,-4.40
2023-02-06T15:28:20.110Z,-4.54
2023-02-06T15:30:52.891Z,-4.75
2023-02-06T15:33:27.739Z,-4.76
2023-02-06T15:35:57.784Z,-4.89
2023-02-06T15:38:27.320Z,-4.84
2023-02-06T15:41:00.326Z,-4.93
2023-02-06T15:43:30.687Z,-5.07
2023-02-06T15:46:01.998Z,-5.10
2023-02-06T15:48:52.772Z,-5.25
2023-02-06T15:51:21.764Z,-5.28
2023-02-06T15:53:51.135Z,-5.31
2023-02-06T15:56:21.328Z,-5.31
2023-02-06T15:58:54.938Z,-5.36
2023-02-06T16:01:22.333Z,-5.46
2023-02-06T16:03:56.641Z,-5.49
2023-02-06T16:06:24.223Z,-5.50
2023-02-06T16:08:56.472Z,-5.44
2023-02-06T16:11:50.781Z,-5.63
2023-02-06T16:14:36.256Z,-5.68
2023-02-06T16:17:15.380Z,-5.67
2023-02-06T16:19:54.579Z,-5.75
2023-02-06T16:22:21.704Z,-5.79
2023-02-06T16:24:51.836Z,-5.92
2023-02-06T16:27:28.053Z,-6.13
2023-02-06T16:29:57.448Z,-6.19
2023-02-06T16:32:30.370Z,-6.23
2023-02-06T16:34:58.210Z,-6.25
2023-02-06T16:37:29.408Z,-6.28
2023-02-06T16:39:56.923Z,-6.30
2023-02-06T16:42:32.361Z,-6.24
2023-02-06T16:45:05.838Z,-6.24
2023-02-06T16:47:33.094Z,-6.29
2023-02-06T16:50:00.275Z,-6.16
2023-02-06T16:52:32.556Z,-6.30
2023-02-06T16:55:01.686Z,-6.35
2023-02-06T16:57:35.309Z,-6.44
2023-02-06T17:00:19.295Z,-6.54
2023-02-06T17:02:48.146Z,-6.47
2023-02-06T17:05:16.293Z,-6.48
2023-02-06T17:07:49.089Z,-6.40
2023-02-06T17:10:22.375Z,-6.28
2023-02-06T17:12:50.354Z,-6.37
2023-02-06T17:15:19.633Z,-6.45
2023-02-06T17:17:49.386Z,-6.55
2023-02-06T17:20:37.410Z,-6.55
2023-02-06T17:23:05.414Z,-6.58
2023-02-06T17:25:32.886Z,-6.64
2023-02-06T17:28:01.408Z,-6.61
2023-02-06T17:30:28.928Z,-6.60
2023-02-06T17:32:56.568Z,-6.52
2023-02-06T17:35:23.886Z,-6.44
2023-02-06T17:37:51.774Z,-6.34
2023-02-06T17:40:25.757Z,-6.29
2023-02-06T17:42:54.031Z,-6.51
2023-02-06T17:45:21.526Z,-6.66
2023-02-06T17:47:49.544Z,-6.80
2023-02-06T17:50:25.347Z,-7.01
2023-02-06T17:52:56.255Z,-7.07
2023-02-06T17:55:24.617Z,-7.10
2023-02-06T17:57:52.568Z,-7.17
2023-02-06T18:00:23.348Z,-7.35
2023-02-06T18:02:53.328Z,-7.48
2023-02-06T18:05:22.994Z,-7.63
2023-02-06T18:07:51.746Z,-7.71
2023-02-06T18:10:21.989Z,-7.84
2023-02-06T18:12:49.418Z,-7.84
2023-02-06T18:15:17.572Z,-7.84
2023-02-06T18:17:45.118Z,-7.91
2023-02-06T18:20:13.258Z,-8.07
2023-02-06T18:22:41.357Z,-8.21
2023-02-06T18:25:14.778Z,-8.23
2023-02-06T18:27:45.870Z,-8.22
2023-02-06T18:30:15.495Z,-8.25
2023-02-06T18:32:42.994Z,-8.19
2023-02-06T18:35:11.027Z,-8.06
2023-02-06T18:37:38.648Z,-7.99
2023-02-06T18:40:06.325Z,-7.93
2023-02-06T18:42:52.027Z,-7.98
2023-02-06T18:45:24.942Z,-8.17
2023-02-06T18:47:52.562Z,-8.24
2023-02-06T18:50:22.017Z,-8.15
2023-02-06T18:52:50.081Z,-7.88
2023-02-06T18:55:17.529Z,-7.87
2023-02-06T18:57:44.858Z,-8.03
2023-02-06T19:00:15.567Z,-8.18
2023-02-06T19:02:42.960Z,-8.24
2023-02-06T19:05:10.916Z,-8.45
2023-02-06T19:07:40.672Z,-8.61
2023-02-06T19:10:12.936Z,-8.80
2023-02-06T19:12:40.417Z,-8.82
2023-02-06T19:15:08.542Z,-8.73
2023-02-06T19:17:36.080Z,-8.89
2023-02-06T19:20:04.637Z,-9.06
2023-02-06T19:22:35.392Z,-8.84
2023-02-06T19:25:04.142Z,-8.40
2023-02-06T19:27:31.560Z,-8.15
2023-02-06T19:29:59.023Z,-8.01
2023-02-06T19:32:29.021Z,-8.22
2023-02-06T19:34:57.861Z,-8.54
2023-02-06T19:37:29.843Z,-8.64
2023-02-06T19:39:57.311Z,-8.88
2023-02-06T19:42:24.650Z,-9.07
2023-02-06T19:44:56.411Z,-9.20
2023-02-06T19:47:23.898Z,-9.18
2023-02-06T19:49:52.617Z,-9.10
2023-02-06T19:52:20.652Z,-9.12
2023-02-06T19:54:48.054Z,-9.20
2023-02-06T19:57:16.048Z,-9.31
2023-02-06T19:59:43.588Z,-9.50
2023-02-06T20:02:15.124Z,-9.61
2023-02-06T20:04:42.703Z,-9.61
2023-02-06T20:07:09.999Z,-9.67
2023-02-06T20:09:41.960Z,-9.72
2023-02-06T20:12:12.440Z,-9.78
2023-02-06T20:14:39.788Z,-9.68
2023-02-06T20:17:09.343Z,-9.69
2023-02-06T20:19:37.056Z,-9.74
2023-02-06T20:22:05.563Z,-9.88
2023-02-06T20:24:33.381Z,-9.91
2023-02-06T20:27:05.778Z,-10.01
2023-02-06T20:29:37.405Z,-10.03
2023-02-06T20:32:06.765Z,-10.04
2023-02-06T20:34:35.347Z,-9.86
2023-02-06T20:37:02.923Z,-9.79
2023-02-06T20:39:34.920Z,-9.83
2023-02-06T20:42:02.468Z,-10.02
2023-02-06T20:44:29.838Z,-10.26
2023-02-06T20:46:57.151Z,-10.30
2023-02-06T20:49:27.532Z,-10.37
2023-02-06T20:51:55.140Z,-10.45
2023-02-06T20:54:23.978Z,-10.46
2023-02-06T20:56:52.028Z,-10.49
2023-02-06T20:59:20.640Z,-10.43
2023-02-06T21:01:48.313Z,-10.45
2023-02-06T21:04:18.064Z,-10.50
2023-02-06T21:06:48.589Z,-10.64
2023-02-06T21:09:18.743Z,-10.62
2023-02-06T21:11:48.537Z,-10.78
2023-02-06T21:14:16.856Z,-10.83
2023-02-06T21:16:44.482Z,-10.83
2023-02-06T21:19:15.315Z,-10.80
2023-02-06T21:21:45.840Z,-10.83
2023-02-06T21:24:14.774Z,-10.83
2023-02-06T21:26:42.651Z,-10.96
2023-02-06T21:29:12.450Z,-11.02
2023-02-06T21:31:40.220Z,-10.96
2023-02-06T21:34:21.310Z,-10.79
2023-02-06T21:36:51.361Z,-10.77
2023-02-06T21:39:22.945Z,-10.73
2023-02-06T21:41:56.887Z,-10.76
2023-02-06T21:44:26.435Z,-10.92
2023-02-06T21:46:55.940Z,-10.93
2023-02-06T21:49:24.109Z,-10.97
2023-02-06T21:51:52.017Z,-11.08
2023-02-06T21:54:20.103Z,-11.06
2023-02-06T21:56:47.479Z,-10.97
2023-02-06T21:59:14.826Z,-10.88
2023-02-06T22:01:42.063Z,-11.03
2023-02-06T22:04:11.205Z,-11.11
2023-02-06T22:06:39.140Z,-11.15
2023-02-06T22:09:09.297Z,-11.18
2023-02-06T22:11:39.338Z,-11.18
2023-02-06T22:14:12.403Z,-11.16
2023-02-06T22:16:39.985Z,-11.11
2023-02-06T22:19:07.988Z,-11.14
2023-02-06T22:21:36.381Z,-11.20
2023-02-06T22:24:06.854Z,-11.18
2023-02-06T22:26:38.581Z,-11.15
2023-02-06T22:29:13.202Z,-11.04
2023-02-06T22:31:43.141Z,-11.04
2023-02-06T22:34:16.740Z,-11.09
2023-02-06T22:36:44.758Z,-11.11
2023-02-06T22:39:13.898Z,-11.14
2023-02-06T22:41:44.375Z,-10.97
2023-02-06T22:44:16.605Z,-10.75
2023-02-06T22:46:50.293Z,-10.82
2023-02-06T22:49:22.120Z,-10.40
2023-02-06T22:51:49.409Z,-9.94
2023-02-06T22:54:17.110Z,-9.99
2023-02-06T22:56:45.134Z,-9.96
2023-02-06T22:59:18.499Z,-10.08
2023-02-06T23:01:51.265Z,-10.11
2023-02-06T23:04:25.274Z,-10.01
2023-02-06T23:06:53.028Z,-9.81
2023-02-06T23:09:28.959Z,-9.79
2023-02-06T23:11:59.996Z,-10.08
2023-02-06T23:14:30.119Z,-10.16
2023-02-06T23:16:59.090Z,-10.13
2023-02-06T23:19:26.595Z,-10.06
2023-02-06T23:21:54.158Z,-9.96
2023-02-06T23:24:21.457Z,-9.83
2023-02-06T23:26:50.977Z,-9.88
2023-02-06T23:29:22.540Z,-10.17
2023-02-06T23:31:51.088Z,-10.21
2023-02-06T23:34:20.332Z,-10.14
2023-02-06T23:36:47.993Z,-9.92
2023-02-06T23:39:15.500Z,-9.68
2023-02-06T23:41:45.259Z,-9.66
2023-02-06T23:44:12.889Z,-9.90
2023-02-06T23:46:41.583Z,-10.08
2023-02-06T23:49:09.250Z,-10.12
2023-02-06T23:51:38.089Z,-10.07
2023-02-06T23:54:07.341Z,-10.11
2023-02-06T23:56:35.486Z,-10.10
2023-02-06T23:59:05.265Z,-10.20
